Time;durP1;ratioP1;P1;durP2;ratioP2;P2;SDS_P1;SDS_P2;PMS_P1;PMS_P2;Temp;Humidity;BMP_temperature;BMP_pressure;BME280_temperature;BME280_humidity;BME280_pressure;Samples;Min_cycle;Max_cycle;Signal;HPM_P1;HPM_P2
2024/01/26 00:00:04;;;;;;;26.50;10.40;;;;;;;6.24;100.00;99319.97;31472893;28;20555;-78
2024/01/26 00:15:07;;;;;;;21.83;10.33;;;;;;;6.01;100.00;99317.22;31506774;28;20128;-77
2024/01/26 00:30:09;;;;;;;21.73;9.77;;;;;;;6.23;100.00;99318.44;31461429;28;20055;-76
2024/01/26 00:45:11;;;;;;;25.83;9.90;;;;;;;6.18;100.00;99328.91;31463082;28;20044;-78
2024/01/26 01:00:14;;;;;;;24.70;10.47;;;;;;;7.05;100.00;99334.06;31454853;28;20496;-77
2024/01/26 01:15:17;;;;;;;26.53;10.13;;;;;;;6.92;100.00;99335.84;31450540;28;20055;-76
2024/01/26 01:30:19;;;;;;;20.57;9.70;;;;;;;6.08;100.00;99327.91;31448969;28;20123;-77
2024/01/26 01:45:21;;;;;;;22.37;9.97;;;;;;;6.27;100.00;99342.66;31457837;28;20630;-76
2024/01/26 02:00:24;;;;;;;25.87;9.93;;;;;;;6.25;100.00;99348.44;31457238;28;20051;-76
2024/01/26 02:15:26;;;;;;;18.63;8.80;;;;;;;6.02;100.00;99346.44;31471768;28;20053;-77
2024/01/26 02:30:33;;;;;;;27.57;10.43;;;;;;;6.02;100.00;99343.00;31458124;28;20049;-77
2024/01/26 02:45:35;;;;;;;42.07;15.03;;;;;;;6.05;100.00;99347.56;31464749;28;20571;-76
2024/01/26 03:00:37;;;;;;;31.30;13.27;;;;;;;5.96;100.00;99347.28;31477597;28;20109;-77
2024/01/26 03:15:39;;;;;;;25.00;9.73;;;;;;;6.09;100.00;99350.97;31465896;28;20094;-77
2024/01/26 03:30:43;;;;;;;23.40;8.40;;;;;;;6.16;100.00;99361.66;31467700;28;20056;-78
2024/01/26 03:45:49;;;;;;;47.90;10.57;;;;;;;6.03;100.00;99366.06;31475589;28;20405;-78
2024/01/26 04:00:51;;;;;;;45.53;9.03;;;;;;;6.09;100.00;99383.31;31481958;28;20076;-77
2024/01/26 04:15:53;;;;;;;23.60;8.30;;;;;;;6.10;100.00;99401.78;31465051;28;20118;-79
2024/01/26 04:30:55;;;;;;;89.20;10.67;;;;;;;7.10;100.00;99411.84;31464077;28;20052;-77
2024/01/26 04:45:57;;;;;;;26.60;8.83;;;;;;;6.41;100.00;99410.59;31470133;28;20084;-77
2024/01/26 05:00:59;;;;;;;28.43;9.67;;;;;;;6.41;100.00;99424.06;31451516;28;20502;-77
2024/01/26 05:16:05;;;;;;;26.57;8.20;;;;;;;7.33;100.00;99438.06;31481501;28;20052;-77
2024/01/26 05:31:08;;;;;;;20.30;7.93;;;;;;;6.29;100.00;99451.59;31452478;28;20059;-78
2024/01/26 05:46:10;;;;;;;31.97;9.30;;;;;;;6.72;100.00;99454.47;31458150;28;20059;-78
2024/01/26 06:01:12;;;;;;;41.87;9.93;;;;;;;7.11;100.00;99475.47;31467813;28;20083;-79
2024/01/26 06:16:14;;;;;;;33.00;8.40;;;;;;;7.21;100.00;99481.88;31453744;28;20076;-76
2024/01/26 06:31:16;;;;;;;44.57;9.93;;;;;;;7.07;100.00;99480.16;31497974;28;20087;-77
2024/01/26 06:46:21;;;;;;;21.47;7.30;;;;;;;7.32;100.00;99492.50;31484284;28;20131;-78
2024/01/26 07:01:23;;;;;;;23.27;8.83;;;;;;;7.44;100.00;99516.22;31491020;28;20526;-77
2024/01/26 07:16:25;;;;;;;31.70;11.53;;;;;;;7.61;100.00;99515.16;31489835;28;20052;-78
2024/01/26 07:31:28;;;;;;;28.77;9.47;;;;;;;7.68;100.00;99527.78;31460459;28;20060;-78
2024/01/26 07:46:32;;;;;;;18.80;8.80;;;;;;;7.65;100.00;99548.28;31486000;28;20135;-79
2024/01/26 08:01:34;;;;;;;30.33;9.20;;;;;;;7.75;100.00;99560.09;31466212;28;20204;-80
2024/01/26 08:16:37;;;;;;;25.07;9.53;;;;;;;7.82;100.00;99576.16;31475866;28;20052;-80
2024/01/26 08:31:39;;;;;;;19.57;7.47;;;;;;;7.92;100.00;99583.34;31468901;28;20144;-77
2024/01/26 08:46:41;;;;;;;32.03;9.73;;;;;;;8.04;100.00;99579.25;31499953;28;20330;-78
2024/01/26 09:01:43;;;;;;;20.10;9.07;;;;;;;8.13;100.00;99571.38;31465162;28;20052;-79
2024/01/26 09:16:50;;;;;;;19.43;7.50;;;;;;;8.44;100.00;99582.81;31467943;28;20475;-77
2024/01/26 09:31:56;;;;;;;18.73;7.93;;;;;;;8.43;100.00;99584.75;31466122;28;20757;-77
2024/01/26 09:47:02;;;;;;;17.53;7.47;;;;;;;8.32;100.00;99588.81;31489663;28;20453;-84
2024/01/26 10:02:04;;;;;;;18.40;8.63;;;;;;;8.26;100.00;99582.38;31510529;28;20059;-77
2024/01/26 10:17:06;;;;;;;17.83;8.70;;;;;;;8.35;100.00;99585.28;31454409;28;20086;-80
2024/01/26 10:32:18;;;;;;;32.63;11.60;;;;;;;8.62;100.00;99577.06;31475674;28;20057;-83
2024/01/26 10:48:09;;;;;;;;;;;;;;;;;;;;;
2024/01/26 11:03:28;;;;;;;29.77;11.17;;;;;;;8.56;100.00;99571.34;31501151;28;20075;-82
2024/01/26 11:18:56;;;;;;;24.17;10.37;;;;;;;8.86;100.00;99576.53;31489232;28;20060;-84
2024/01/26 11:35:09;;;;;;;;;;;;;;;;;;;;;
2024/01/26 11:50:15;;;;;;;26.13;9.93;;;;;;;8.40;100.00;99585.59;31439322;28;20021;-88
2024/01/26 12:05:30;;;;;;;24.77;10.80;;;;;;;8.57;100.00;99599.19;31508084;28;20044;-83
2024/01/26 12:20:56;;;;;;;;;;;;;;;8.99;100.00;99611.06;31485292;28;20553;-84
2024/01/26 12:36:00;;;;;;;14.73;7.60;;;;;;;8.51;100.00;99615.88;31468495;28;19932;-75
2024/01/26 12:51:06;;;;;;;22.77;9.37;;;;;;;8.45;100.00;99630.31;31479981;28;20515;-76
2024/01/26 13:06:08;;;;;;;18.33;8.50;;;;;;;8.25;100.00;99648.44;31466684;28;20803;-76
2024/01/26 13:21:10;;;;;;;21.67;10.00;;;;;;;8.15;100.00;99655.53;31471603;28;20419;-78
2024/01/26 13:36:12;;;;;;;27.37;9.23;;;;;;;7.91;100.00;99662.13;31462263;28;20052;-76
2024/01/26 13:51:14;;;;;;;20.23;8.10;;;;;;;7.80;100.00;99667.69;31499483;28;20048;-79
2024/01/26 14:06:17;;;;;;;14.63;5.93;;;;;;;7.80;100.00;99678.50;31484146;28;20051;-76
2024/01/26 14:21:22;;;;;;;11.13;5.50;;;;;;;8.03;100.00;99688.59;31490912;28;20048;-80
2024/01/26 14:36:42;;;;;;;14.17;6.73;;;;;;;8.05;100.00;99705.91;31541698;28;20077;-84
2024/01/26 14:52:10;;;;;;;12.63;5.77;;;;;;;7.99;100.00;99723.00;31503328;28;20048;-82
2024/01/26 15:07:23;;;;;;;12.63;6.37;;;;;;;7.62;100.00;99732.78;31504916;28;20048;-83
2024/01/26 15:22:58;;;;;;;;;;;;;;;;;;;;;
2024/01/26 15:38:14;;;;;;;;;;;;;;;8.02;100.00;99754.63;31261817;28;20053;-87
2024/01/26 15:53:19;;;;;;;16.67;6.60;;;;;;;7.51;100.00;99759.97;31262417;28;20017;-85
2024/01/26 16:08:21;;;;;;;14.00;6.43;;;;;;;7.31;100.00;99774.47;31503687;28;20419;-80
2024/01/26 16:23:26;;;;;;;13.20;7.33;;;;;;;7.21;100.00;99783.47;31507715;28;20044;-76
2024/01/26 16:38:28;;;;;;;17.97;8.40;;;;;;;7.13;100.00;99788.94;31528497;28;20058;-79
2024/01/26 16:53:33;;;;;;;17.70;8.47;;;;;;;7.21;100.00;99803.13;31475452;28;20072;-78
2024/01/26 17:08:35;;;;;;;18.63;9.30;;;;;;;6.90;100.00;99812.28;31510741;28;20053;-81
2024/01/26 17:23:40;;;;;;;28.83;9.90;;;;;;;6.89;100.00;99822.31;31478486;28;20516;-75
2024/01/26 17:38:43;;;;;;;23.98;9.63;;;;;;;6.59;100.00;99830.31;31468384;28;20067;-77
2024/01/26 17:53:45;;;;;;;28.30;10.33;;;;;;;6.57;100.00;99832.63;31467281;28;20522;-76
2024/01/26 18:08:48;;;;;;;24.43;10.30;;;;;;;6.49;100.00;99832.69;31480511;28;20101;-78
2024/01/26 18:23:50;;;;;;;26.43;10.93;;;;;;;6.58;100.00;99839.56;31496674;28;20086;-77
2024/01/26 18:38:54;;;;;;;26.87;9.13;;;;;;;6.68;100.00;99846.78;31485023;28;20143;-77
2024/01/26 18:53:56;;;;;;;32.13;12.00;;;;;;;6.61;100.00;99844.16;31515518;28;20044;-80
2024/01/26 19:08:58;;;;;;;29.43;12.20;;;;;;;6.57;100.00;99867.69;31488319;28;20229;-77
2024/01/26 19:24:04;;;;;;;29.90;11.40;;;;;;;6.71;100.00;99859.50;31487622;28;20052;-76
2024/01/26 19:39:07;;;;;;;;;;;;;;;6.94;100.00;99867.78;31497555;28;20084;-75
2024/01/26 19:54:09;;;;;;;30.63;12.50;;;;;;;6.55;100.00;99872.72;31510189;28;19959;-76
2024/01/26 20:09:11;;;;;;;26.07;10.77;;;;;;;6.44;100.00;99868.16;31501926;28;20076;-78
2024/01/26 20:24:16;;;;;;;31.67;13.47;;;;;;;5.53;100.00;99862.03;31485352;28;20457;-78
2024/01/26 20:39:18;;;;;;;28.30;11.60;;;;;;;5.70;100.00;99869.28;31494056;28;20052;-76
2024/01/26 20:54:21;;;;;;;37.83;15.47;;;;;;;5.76;100.00;99861.56;31524534;28;20052;-77
2024/01/26 21:09:23;;;;;;;34.57;14.23;;;;;;;5.95;100.00;99854.97;31457892;28;20041;-77
2024/01/26 21:24:26;;;;;;;35.53;11.70;;;;;;;5.69;100.00;99865.03;31476290;28;20052;-77
2024/01/26 21:39:28;;;;;;;23.37;10.87;;;;;;;5.76;100.00;99867.72;31485928;28;20114;-77
2024/01/26 21:54:30;;;;;;;30.90;11.83;;;;;;;5.63;100.00;99877.41;31505540;28;20048;-74
2024/01/26 22:09:34;;;;;;;24.93;10.73;;;;;;;5.34;100.00;99874.00;31477852;28;20151;-76
2024/01/26 22:24:36;;;;;;;31.10;11.60;;;;;;;5.41;100.00;99868.63;31475489;28;20054;-76
2024/01/26 22:39:38;;;;;;;22.83;10.53;;;;;;;5.39;100.00;99870.16;31462487;28;20060;-76
2024/01/26 22:54:42;;;;;;;20.13;10.63;;;;;;;5.38;100.00;99884.78;31462775;28;20140;-77
2024/01/26 23:09:45;;;;;;;19.67;8.07;;;;;;;5.37;100.00;99884.00;31468909;28;20475;-76
2024/01/26 23:24:48;;;;;;;24.47;8.57;;;;;;;5.35;100.00;99896.31;31502110;28;20078;-76
2024/01/26 23:39:50;;;;;;;29.67;10.60;;;;;;;5.36;100.00;99903.22;31484024;28;20663;-77
2024/01/26 23:54:52;;;;;;;22.40;11.57;;;;;;;5.47;100.00;99909.34;31468451;28;20075;-76
